sensor_id;sensor_type;location;lat;lon;timestamp;pressure;altitude;pressure_sealevel;temperature;humidity
12722;BME280;6425;50.316;8.114;2023-06-05T00:00:00;994;;;10.1;70.9
12722;BME280;6425;50.316;8.114;2023-06-05T00:03:00;994;;;10.1;71.1
12722;BME280;6425;50.316;8.114;2023-06-05T00:06:00;994;;;10;71.7
12722;BME280;6425;50.316;8.114;2023-06-05T00:09:00;994;;;10;71.7
12722;BME280;6425;50.316;8.114;2023-06-05T00:12:00;994;;;9.8;71.8
12722;BME280;6425;50.316;8.114;2023-06-05T00:15:00;994;;;9.7;72.2
12722;BME280;6425;50.316;8.114;2023-06-05T00:18:00;994;;;9.6;72.4
12722;BME280;6425;50.316;8.114;2023-06-05T00:21:00;994;;;9.5;72.8
12722;BME280;6425;50.316;8.114;2023-06-05T00:24:00;994;;;9.5;73.3
12722;BME280;6425;50.316;8.114;2023-06-05T00:27:00;994;;;9.4;73.5
12722;BME280;6425;50.316;8.114;2023-06-05T00:30:00;994;;;9.5;73.2
12722;BME280;6425;50.316;8.114;2023-06-05T00:33:00;994;;;9.7;72.6
12722;BME280;6425;50.316;8.114;2023-06-05T00:36:00;994;;;9.8;71.8
12722;BME280;6425;50.316;8.114;2023-06-05T00:39:00;994;;;9.6;72
12722;BME280;6425;50.316;8.114;2023-06-05T00:42:00;994;;;9.4;72.8
12722;BME280;6425;50.316;8.114;2023-06-05T00:45:00;994;;;9.4;73.1
12722;BME280;6425;50.316;8.114;2023-06-05T00:48:00;994;;;9.4;73
12722;BME280;6425;50.316;8.114;2023-06-05T00:51:00;994;;;9.4;73.3
12722;BME280;6425;50.316;8.114;2023-06-05T00:54:00;994;;;9.3;73.5
12722;BME280;6425;50.316;8.114;2023-06-05T00:57:00;994;;;9.1;74.3
12722;BME280;6425;50.316;8.114;2023-06-05T01:00:00;993;;;9.2;74.1
12722;BME280;6425;50.316;8.114;2023-06-05T01:03:00;994;;;9.2;74
12722;BME280;6425;50.316;8.114;2023-06-05T01:06:00;994;;;9.3;72.7
12722;BME280;6425;50.316;8.114;2023-06-05T01:09:00;994;;;9.3;73.3
12722;BME280;6425;50.316;8.114;2023-06-05T01:12:00;994;;;9.2;73.2
12722;BME280;6425;50.316;8.114;2023-06-05T01:15:01;994;;;9.1;73.7
12722;BME280;6425;50.316;8.114;2023-06-05T01:18:00;994;;;9.2;73.9
12722;BME280;6425;50.316;8.114;2023-06-05T01:21:00;994;;;9.2;73.8
12722;BME280;6425;50.316;8.114;2023-06-05T01:24:00;993;;;9.2;73.4
12722;BME280;6425;50.316;8.114;2023-06-05T01:27:01;993;;;9.3;73.4
12722;BME280;6425;50.316;8.114;2023-06-05T01:30:01;993;;;9.1;73.1
12722;BME280;6425;50.316;8.114;2023-06-05T01:33:01;993;;;9;73.7
12722;BME280;6425;50.316;8.114;2023-06-05T01:36:00;993;;;9;73.8
12722;BME280;6425;50.316;8.114;2023-06-05T01:39:00;993;;;9;73.8
12722;BME280;6425;50.316;8.114;2023-06-05T01:42:00;993;;;9.1;73.9
12722;BME280;6425;50.316;8.114;2023-06-05T01:45:00;993;;;9.1;73.9
12722;BME280;6425;50.316;8.114;2023-06-05T01:48:00;993;;;8.9;74.2
12722;BME280;6425;50.316;8.114;2023-06-05T01:51:00;993;;;8.8;74.8
12722;BME280;6425;50.316;8.114;2023-06-05T01:54:00;993;;;8.8;74.9
12722;BME280;6425;50.316;8.114;2023-06-05T01:57:00;993;;;8.7;75.1
12722;BME280;6425;50.316;8.114;2023-06-05T02:00:00;993;;;8.7;75.2
12722;BME280;6425;50.316;8.114;2023-06-05T02:03:00;993;;;8.8;75.3
12722;BME280;6425;50.316;8.114;2023-06-05T02:06:00;993;;;8.8;75.2
12722;BME280;6425;50.316;8.114;2023-06-05T02:09:00;993;;;8.6;75.1
12722;BME280;6425;50.316;8.114;2023-06-05T02:12:00;993;;;8.5;75.7
12722;BME280;6425;50.316;8.114;2023-06-05T02:15:00;993;;;8.5;76.3
12722;BME280;6425;50.316;8.114;2023-06-05T02:18:00;993;;;8.6;76.1
12722;BME280;6425;50.316;8.114;2023-06-05T02:21:00;993;;;8.6;75.9
12722;BME280;6425;50.316;8.114;2023-06-05T02:24:00;993;;;8.5;75.7
12722;BME280;6425;50.316;8.114;2023-06-05T02:27:00;993;;;8.5;76
12722;BME280;6425;50.316;8.114;2023-06-05T02:30:00;993;;;8.5;75.9
12722;BME280;6425;50.316;8.114;2023-06-05T02:33:00;993;;;8.5;76
12722;BME280;6425;50.316;8.114;2023-06-05T02:36:00;993;;;8.5;76.1
12722;BME280;6425;50.316;8.114;2023-06-05T02:39:00;993;;;8.5;75.9
12722;BME280;6425;50.316;8.114;2023-06-05T02:42:00;993;;;8.8;74.8
12722;BME280;6425;50.316;8.114;2023-06-05T02:45:00;993;;;9;73.6
12722;BME280;6425;50.316;8.114;2023-06-05T02:48:00;993;;;8.9;73.5
12722;BME280;6425;50.316;8.114;2023-06-05T02:51:00;993;;;8.9;74
12722;BME280;6425;50.316;8.114;2023-06-05T02:54:00;993;;;8.9;73.9
12722;BME280;6425;50.316;8.114;2023-06-05T02:57:00;993;;;9;73.2
12722;BME280;6425;50.316;8.114;2023-06-05T03:00:00;993;;;9.1;72.6
12722;BME280;6425;50.316;8.114;2023-06-05T03:03:00;993;;;9.1;72.7
12722;BME280;6425;50.316;8.114;2023-06-05T03:06:00;993;;;9.1;72.9
12722;BME280;6425;50.316;8.114;2023-06-05T03:09:00;993;;;9;73
12722;BME280;6425;50.316;8.114;2023-06-05T03:12:00;993;;;8.9;73.7
12722;BME280;6425;50.316;8.114;2023-06-05T03:15:00;993;;;8.4;75.1
12722;BME280;6425;50.316;8.114;2023-06-05T03:18:00;993;;;8.3;76.4
12722;BME280;6425;50.316;8.114;2023-06-05T03:21:00;993;;;8.3;77.3
12722;BME280;6425;50.316;8.114;2023-06-05T03:24:00;993;;;8.4;76.1
12722;BME280;6425;50.316;8.114;2023-06-05T03:27:00;993;;;8.3;75.9
12722;BME280;6425;50.316;8.114;2023-06-05T03:30:00;993;;;8.2;76.5
12722;BME280;6425;50.316;8.114;2023-06-05T03:33:00;993;;;8.1;76.7
12722;BME280;6425;50.316;8.114;2023-06-05T03:36:00;993;;;8.1;77
12722;BME280;6425;50.316;8.114;2023-06-05T03:39:00;993;;;7.9;77.8
12722;BME280;6425;50.316;8.114;2023-06-05T03:42:00;993;;;7.9;78
12722;BME280;6425;50.316;8.114;2023-06-05T03:45:00;993;;;7.9;78.6
12722;BME280;6425;50.316;8.114;2023-06-05T03:48:00;993;;;8;78.2
12722;BME280;6425;50.316;8.114;2023-06-05T03:51:00;993;;;8;78.3
12722;BME280;6425;50.316;8.114;2023-06-05T03:54:00;993;;;8;78.3
12722;BME280;6425;50.316;8.114;2023-06-05T03:57:00;993;;;8;78.7
12722;BME280;6425;50.316;8.114;2023-06-05T04:00:00;993;;;8.1;78.8
12722;BME280;6425;50.316;8.114;2023-06-05T04:03:00;993;;;8.3;78.2
12722;BME280;6425;50.316;8.114;2023-06-05T04:06:00;993;;;8.6;77
12722;BME280;6425;50.316;8.114;2023-06-05T04:09:00;993;;;8.9;75.9
12722;BME280;6425;50.316;8.114;2023-06-05T04:12:00;993;;;9.2;74.4
12722;BME280;6425;50.316;8.114;2023-06-05T04:15:00;993;;;9.5;73.1
12722;BME280;6425;50.316;8.114;2023-06-05T04:18:00;993;;;9.9;73.2
12722;BME280;6425;50.316;8.114;2023-06-05T04:21:00;993;;;10.1;71.7
12722;BME280;6425;50.316;8.114;2023-06-05T04:24:00;993;;;10.2;71.7
12722;BME280;6425;50.316;8.114;2023-06-05T04:27:00;993;;;10.4;71.6
12722;BME280;6425;50.316;8.114;2023-06-05T04:30:00;993;;;10.6;70.8
12722;BME280;6425;50.316;8.114;2023-06-05T04:33:00;993;;;10.9;70.7
12722;BME280;6425;50.316;8.114;2023-06-05T04:36:00;993;;;11.2;69.9
12722;BME280;6425;50.316;8.114;2023-06-05T04:39:00;993;;;11.6;68.1
12722;BME280;6425;50.316;8.114;2023-06-05T04:42:00;993;;;11.9;67.6
12722;BME280;6425;50.316;8.114;2023-06-05T04:45:00;993;;;12.3;65.9
12722;BME280;6425;50.316;8.114;2023-06-05T04:48:00;993;;;12.6;64.7
12722;BME280;6425;50.316;8.114;2023-06-05T04:51:00;993;;;13;63.3
12722;BME280;6425;50.316;8.114;2023-06-05T04:54:00;993;;;13;63
12722;BME280;6425;50.316;8.114;2023-06-05T04:57:00;993;;;12.9;63.5
12722;BME280;6425;50.316;8.114;2023-06-05T05:00:00;993;;;12.8;64.1
12722;BME280;6425;50.316;8.114;2023-06-05T05:03:00;993;;;13;65.4
12722;BME280;6425;50.316;8.114;2023-06-05T05:06:00;993;;;13.7;63.4
12722;BME280;6425;50.316;8.114;2023-06-05T05:09:00;993;;;14.2;61.9
12722;BME280;6425;50.316;8.114;2023-06-05T05:12:00;993;;;14.7;60.5
12722;BME280;6425;50.316;8.114;2023-06-05T05:15:00;993;;;15.1;56.8
12722;BME280;6425;50.316;8.114;2023-06-05T05:18:00;993;;;15.8;53.8
12722;BME280;6425;50.316;8.114;2023-06-05T05:21:00;993;;;15.6;54.2
12722;BME280;6425;50.316;8.114;2023-06-05T05:24:00;993;;;15.3;54.1
12722;BME280;6425;50.316;8.114;2023-06-05T05:27:00;993;;;15;55.3
12722;BME280;6425;50.316;8.114;2023-06-05T05:30:00;993;;;14.7;56.3
12722;BME280;6425;50.316;8.114;2023-06-05T05:33:00;993;;;14.3;56.6
12722;BME280;6425;50.316;8.114;2023-06-05T05:36:00;993;;;12.9;63.5
12722;BME280;6425;50.316;8.114;2023-06-05T05:39:00;993;;;12.4;65.4
12722;BME280;6425;50.316;8.114;2023-06-05T05:42:00;993;;;12.1;65.9
12722;BME280;6425;50.316;8.114;2023-06-05T05:45:00;993;;;12;66.1
12722;BME280;6425;50.316;8.114;2023-06-05T05:48:00;993;;;12.2;66.2
12722;BME280;6425;50.316;8.114;2023-06-05T05:51:00;993;;;12.4;66.4
12722;BME280;6425;50.316;8.114;2023-06-05T05:54:00;993;;;12.7;62.9
12722;BME280;6425;50.316;8.114;2023-06-05T05:57:00;993;;;12.8;60.7
12722;BME280;6425;50.316;8.114;2023-06-05T06:00:00;993;;;13.1;60.8
12722;BME280;6425;50.316;8.114;2023-06-05T06:03:00;993;;;14;58.8
12722;BME280;6425;50.316;8.114;2023-06-05T06:06:00;993;;;14.4;56.9
12722;BME280;6425;50.316;8.114;2023-06-05T06:09:00;993;;;14.6;56.3
12722;BME280;6425;50.316;8.114;2023-06-05T06:12:00;993;;;15.3;54.1
12722;BME280;6425;50.316;8.114;2023-06-05T06:15:00;993;;;15;54.4
12722;BME280;6425;50.316;8.114;2023-06-05T06:18:00;993;;;14.8;55.6
12722;BME280;6425;50.316;8.114;2023-06-05T06:21:00;993;;;14.3;57.6
12722;BME280;6425;50.316;8.114;2023-06-05T06:24:00;993;;;14.9;57.3
12722;BME280;6425;50.316;8.114;2023-06-05T06:27:00;993;;;14.7;57.7
12722;BME280;6425;50.316;8.114;2023-06-05T06:30:00;993;;;15.2;56.7
12722;BME280;6425;50.316;8.114;2023-06-05T06:33:00;993;;;16.1;53.5
12722;BME280;6425;50.316;8.114;2023-06-05T06:36:00;993;;;16.5;52
12722;BME280;6425;50.316;8.114;2023-06-05T06:39:00;993;;;16.6;51.6
12722;BME280;6425;50.316;8.114;2023-06-05T06:42:00;993;;;16.8;51.1
12722;BME280;6425;50.316;8.114;2023-06-05T06:45:00;993;;;16.8;50.9
12722;BME280;6425;50.316;8.114;2023-06-05T06:48:00;993;;;16.3;51.9
12722;BME280;6425;50.316;8.114;2023-06-05T06:51:00;993;;;16.4;52.8
12722;BME280;6425;50.316;8.114;2023-06-05T06:54:00;993;;;17.2;50.8
12722;BME280;6425;50.316;8.114;2023-06-05T06:57:00;993;;;17.6;50.7
12722;BME280;6425;50.316;8.114;2023-06-05T07:00:00;993;;;18;48
12722;BME280;6425;50.316;8.114;2023-06-05T07:03:00;993;;;18;46.4
12722;BME280;6425;50.316;8.114;2023-06-05T07:06:00;993;;;17.6;47.4
12722;BME280;6425;50.316;8.114;2023-06-05T07:09:00;993;;;17.5;47.7
12722;BME280;6425;50.316;8.114;2023-06-05T07:12:00;993;;;17.8;47.7
12722;BME280;6425;50.316;8.114;2023-06-05T07:15:00;993;;;17.2;48.3
12722;BME280;6425;50.316;8.114;2023-06-05T07:18:00;993;;;17.5;48.1
12722;BME280;6425;50.316;8.114;2023-06-05T07:21:00;993;;;17.7;48.1
12722;BME280;6425;50.316;8.114;2023-06-05T07:24:00;993;;;18.1;47
12722;BME280;6425;50.316;8.114;2023-06-05T07:27:00;993;;;18.6;45.1
12722;BME280;6425;50.316;8.114;2023-06-05T07:30:00;993;;;19;44.4
12722;BME280;6425;50.316;8.114;2023-06-05T07:33:00;993;;;18.6;44.4
12722;BME280;6425;50.316;8.114;2023-06-05T07:36:00;993;;;18.7;44.9
12722;BME280;6425;50.316;8.114;2023-06-05T07:39:00;993;;;19.1;44
12722;BME280;6425;50.316;8.114;2023-06-05T07:42:00;993;;;18.6;44.1
12722;BME280;6425;50.316;8.114;2023-06-05T07:45:00;993;;;18.7;44.7
12722;BME280;6425;50.316;8.114;2023-06-05T07:48:00;993;;;18.8;43.5
12722;BME280;6425;50.316;8.114;2023-06-05T07:51:00;993;;;18.7;44.1
12722;BME280;6425;50.316;8.114;2023-06-05T07:54:00;993;;;19.4;41.9
12722;BME280;6425;50.316;8.114;2023-06-05T07:57:00;993;;;19.1;43.2
12722;BME280;6425;50.316;8.114;2023-06-05T08:00:00;993;;;19.5;42.1
12722;BME280;6425;50.316;8.114;2023-06-05T08:03:00;993;;;19.6;42.2
12722;BME280;6425;50.316;8.114;2023-06-05T08:06:00;993;;;19.8;41.6
12722;BME280;6425;50.316;8.114;2023-06-05T08:09:00;993;;;20.8;40.3
12722;BME280;6425;50.316;8.114;2023-06-05T08:12:00;993;;;20.2;40.8
12722;BME280;6425;50.316;8.114;2023-06-05T08:15:00;993;;;19.9;41.3
12722;BME280;6425;50.316;8.114;2023-06-05T08:18:00;993;;;20.2;41.4
12722;BME280;6425;50.316;8.114;2023-06-05T08:21:00;993;;;20.7;41.1
12722;BME280;6425;50.316;8.114;2023-06-05T08:24:00;993;;;20.8;40.8
12722;BME280;6425;50.316;8.114;2023-06-05T08:27:00;993;;;20.5;41
12722;BME280;6425;50.316;8.114;2023-06-05T08:30:00;993;;;20.8;40.3
12722;BME280;6425;50.316;8.114;2023-06-05T08:33:00;993;;;21.4;39.6
12722;BME280;6425;50.316;8.114;2023-06-05T08:36:00;993;;;22.1;38.3
12722;BME280;6425;50.316;8.114;2023-06-05T08:39:00;993;;;21.5;38.2
12722;BME280;6425;50.316;8.114;2023-06-05T08:42:00;993;;;21;39.4
12722;BME280;6425;50.316;8.114;2023-06-05T08:45:00;993;;;21;39.4
12722;BME280;6425;50.316;8.114;2023-06-05T08:48:00;993;;;21.5;38.9
12722;BME280;6425;50.316;8.114;2023-06-05T08:51:00;993;;;21.2;38.9
12722;BME280;6425;50.316;8.114;2023-06-05T08:54:01;993;;;20.9;40
12722;BME280;6425;50.316;8.114;2023-06-05T08:57:00;993;;;21.3;39.7
12722;BME280;6425;50.316;8.114;2023-06-05T09:00:02;993;;;21.8;39.3
12722;BME280;6425;50.316;8.114;2023-06-05T09:03:00;993;;;21.7;38.2
12722;BME280;6425;50.316;8.114;2023-06-05T09:06:00;993;;;21.6;39.8
12722;BME280;6425;50.316;8.114;2023-06-05T09:09:00;993;;;22.8;37.7
12722;BME280;6425;50.316;8.114;2023-06-05T09:12:00;993;;;22.8;37
12722;BME280;6425;50.316;8.114;2023-06-05T09:15:00;993;;;22.6;37.4
12722;BME280;6425;50.316;8.114;2023-06-05T09:18:03;993;;;23;36.9
12722;BME280;6425;50.316;8.114;2023-06-05T09:21:00;993;;;23.1;37.5
12722;BME280;6425;50.316;8.114;2023-06-05T09:24:16;993;;;22.8;36.4
12722;BME280;6425;50.316;8.114;2023-06-05T09:27:01;993;;;22.7;37
12722;BME280;6425;50.316;8.114;2023-06-05T09:30:02;993;;;22.3;37.8
12722;BME280;6425;50.316;8.114;2023-06-05T09:33:07;993;;;22.3;38.6
12722;BME280;6425;50.316;8.114;2023-06-05T09:36:01;993;;;22.5;37.5
12722;BME280;6425;50.316;8.114;2023-06-05T09:39:04;993;;;22.3;38.2
12722;BME280;6425;50.316;8.114;2023-06-05T09:42:00;993;;;22.9;37.5
12722;BME280;6425;50.316;8.114;2023-06-05T09:45:00;993;;;23;37.5
12722;BME280;6425;50.316;8.114;2023-06-05T09:48:01;993;;;23.3;35.3
12722;BME280;6425;50.316;8.114;2023-06-05T09:51:07;993;;;23.4;36.2
12722;BME280;6425;50.316;8.114;2023-06-05T09:54:00;993;;;23.4;36
12722;BME280;6425;50.316;8.114;2023-06-05T09:57:00;993;;;24.1;34.4
12722;BME280;6425;50.316;8.114;2023-06-05T10:00:01;993;;;23.7;35.7
12722;BME280;6425;50.316;8.114;2023-06-05T10:03:00;993;;;24;36.7
12722;BME280;6425;50.316;8.114;2023-06-05T10:06:00;993;;;24.2;35.5
12722;BME280;6425;50.316;8.114;2023-06-05T10:09:00;993;;;24;35.6
12722;BME280;6425;50.316;8.114;2023-06-05T10:12:00;992;;;24.4;35.4
12722;BME280;6425;50.316;8.114;2023-06-05T10:15:00;992;;;24.5;33.2
12722;BME280;6425;50.316;8.114;2023-06-05T10:18:00;992;;;24.5;32.8
12722;BME280;6425;50.316;8.114;2023-06-05T10:21:00;992;;;24.6;33.5
12722;BME280;6425;50.316;8.114;2023-06-05T10:24:00;992;;;24.3;32.5
12722;BME280;6425;50.316;8.114;2023-06-05T10:30:40;992;;;24.3;32.3
12722;BME280;6425;50.316;8.114;2023-06-05T10:33:02;992;;;24.1;30.2
12722;BME280;6425;50.316;8.114;2023-06-05T10:36:03;992;;;24.5;31.3
12722;BME280;6425;50.316;8.114;2023-06-05T10:39:00;992;;;25.4;28.6
12722;BME280;6425;50.316;8.114;2023-06-05T10:42:00;992;;;25.7;29.3
12722;BME280;6425;50.316;8.114;2023-06-05T10:45:00;992;;;24.9;30.5
12722;BME280;6425;50.316;8.114;2023-06-05T10:48:00;992;;;25.2;30.2
12722;BME280;6425;50.316;8.114;2023-06-05T10:51:20;992;;;24.7;29.4
12722;BME280;6425;50.316;8.114;2023-06-05T10:54:00;992;;;24.9;30.4
12722;BME280;6425;50.316;8.114;2023-06-05T10:57:00;992;;;24.8;29.8
12722;BME280;6425;50.316;8.114;2023-06-05T11:00:07;992;;;24.9;30.4
12722;BME280;6425;50.316;8.114;2023-06-05T11:03:00;992;;;24.7;30.5
12722;BME280;6425;50.316;8.114;2023-06-05T11:06:10;992;;;24.5;30.4
12722;BME280;6425;50.316;8.114;2023-06-05T11:09:07;992;;;24.6;28.9
12722;BME280;6425;50.316;8.114;2023-06-05T11:12:00;992;;;25;28.1
12722;BME280;6425;50.316;8.114;2023-06-05T11:15:00;992;;;24.5;28.9
12722;BME280;6425;50.316;8.114;2023-06-05T11:18:10;992;;;24.7;28.8
12722;BME280;6425;50.316;8.114;2023-06-05T11:21:00;992;;;24.8;28.8
12722;BME280;6425;50.316;8.114;2023-06-05T11:24:15;992;;;24.6;28.4
12722;BME280;6425;50.316;8.114;2023-06-05T11:27:00;992;;;24.3;29.6
12722;BME280;6425;50.316;8.114;2023-06-05T11:30:00;992;;;24.2;29
12722;BME280;6425;50.316;8.114;2023-06-05T11:33:05;992;;;24.6;28.6
12722;BME280;6425;50.316;8.114;2023-06-05T11:36:00;992;;;25.1;28.9
12722;BME280;6425;50.316;8.114;2023-06-05T11:39:00;992;;;24.8;28.5
12722;BME280;6425;50.316;8.114;2023-06-05T11:42:00;992;;;24.9;28
12722;BME280;6425;50.316;8.114;2023-06-05T11:45:00;992;;;25.2;27.6
12722;BME280;6425;50.316;8.114;2023-06-05T11:48:03;992;;;25.3;27.1
12722;BME280;6425;50.316;8.114;2023-06-05T11:51:01;992;;;26.1;25.9
12722;BME280;6425;50.316;8.114;2023-06-05T11:54:00;992;;;26.1;26.2
12722;BME280;6425;50.316;8.114;2023-06-05T11:57:00;992;;;25.8;26.7
12722;BME280;6425;50.316;8.114;2023-06-05T12:00:00;992;;;25.4;26.6
12722;BME280;6425;50.316;8.114;2023-06-05T12:03:00;992;;;25.3;27.3
12722;BME280;6425;50.316;8.114;2023-06-05T12:06:00;992;;;25.5;27.4
12722;BME280;6425;50.316;8.114;2023-06-05T12:09:08;992;;;26.1;25.9
12722;BME280;6425;50.316;8.114;2023-06-05T12:12:07;992;;;25.9;25.6
12722;BME280;6425;50.316;8.114;2023-06-05T12:15:13;992;;;26.1;25.3
12722;BME280;6425;50.316;8.114;2023-06-05T12:18:00;992;;;25.6;26.2
12722;BME280;6425;50.316;8.114;2023-06-05T12:21:00;992;;;25;26.6
12722;BME280;6425;50.316;8.114;2023-06-05T12:24:00;992;;;25.1;26.3
12722;BME280;6425;50.316;8.114;2023-06-05T12:27:00;992;;;24.9;26.6
12722;BME280;6425;50.316;8.114;2023-06-05T12:30:00;992;;;25;27.3
12722;BME280;6425;50.316;8.114;2023-06-05T12:33:03;992;;;25.4;26.5
12722;BME280;6425;50.316;8.114;2023-06-05T12:36:03;992;;;25.4;26.5
12722;BME280;6425;50.316;8.114;2023-06-05T12:39:01;992;;;26;25.5
12722;BME280;6425;50.316;8.114;2023-06-05T12:42:00;992;;;26.4;26
12722;BME280;6425;50.316;8.114;2023-06-05T12:45:00;992;;;26.6;25.7
12722;BME280;6425;50.316;8.114;2023-06-05T12:48:00;992;;;25.9;25.3
12722;BME280;6425;50.316;8.114;2023-06-05T12:51:00;992;;;26;25.8
12722;BME280;6425;50.316;8.114;2023-06-05T12:54:00;992;;;26.7;25.4
12722;BME280;6425;50.316;8.114;2023-06-05T12:57:00;991;;;27.8;24.4
12722;BME280;6425;50.316;8.114;2023-06-05T13:00:02;992;;;27.4;24.4
12722;BME280;6425;50.316;8.114;2023-06-05T13:03:00;992;;;26.1;25.2
12722;BME280;6425;50.316;8.114;2023-06-05T13:06:00;991;;;26.1;25.1
12722;BME280;6425;50.316;8.114;2023-06-05T13:09:00;991;;;26;25.9
12722;BME280;6425;50.316;8.114;2023-06-05T13:12:00;991;;;26.1;25.7
12722;BME280;6425;50.316;8.114;2023-06-05T13:15:00;991;;;26.5;25.6
12722;BME280;6425;50.316;8.114;2023-06-05T13:18:00;991;;;26.9;24.6
12722;BME280;6425;50.316;8.114;2023-06-05T13:21:00;991;;;26.3;25.2
12722;BME280;6425;50.316;8.114;2023-06-05T13:24:00;991;;;25.5;26.7
12722;BME280;6425;50.316;8.114;2023-06-05T13:27:00;991;;;25.7;26.6
12722;BME280;6425;50.316;8.114;2023-06-05T13:30:00;991;;;25.9;26.3
12722;BME280;6425;50.316;8.114;2023-06-05T13:33:00;991;;;25.8;26.4
12722;BME280;6425;50.316;8.114;2023-06-05T13:36:00;991;;;26.1;26.2
12722;BME280;6425;50.316;8.114;2023-06-05T13:39:00;991;;;26.2;25.8
12722;BME280;6425;50.316;8.114;2023-06-05T13:42:00;991;;;26.4;26.9
12722;BME280;6425;50.316;8.114;2023-06-05T13:45:00;991;;;26.5;25.2
12722;BME280;6425;50.316;8.114;2023-06-05T13:48:00;991;;;26.2;26.2
12722;BME280;6425;50.316;8.114;2023-06-05T13:51:00;991;;;26.2;25.9
12722;BME280;6425;50.316;8.114;2023-06-05T13:54:00;991;;;26;26.4
12722;BME280;6425;50.316;8.114;2023-06-05T13:57:00;991;;;26;26
12722;BME280;6425;50.316;8.114;2023-06-05T14:00:00;991;;;25.7;26.8
12722;BME280;6425;50.316;8.114;2023-06-05T14:03:00;991;;;26;26.9
12722;BME280;6425;50.316;8.114;2023-06-05T14:06:00;991;;;25.8;26.4
12722;BME280;6425;50.316;8.114;2023-06-05T14:09:00;991;;;26.6;25.4
12722;BME280;6425;50.316;8.114;2023-06-05T14:12:00;991;;;26.1;26.1
12722;BME280;6425;50.316;8.114;2023-06-05T14:15:00;991;;;26.3;26.2
12722;BME280;6425;50.316;8.114;2023-06-05T14:18:00;991;;;26.7;25.8
12722;BME280;6425;50.316;8.114;2023-06-05T14:21:00;991;;;26.6;26.4
12722;BME280;6425;50.316;8.114;2023-06-05T14:24:00;991;;;26.2;25.8
12722;BME280;6425;50.316;8.114;2023-06-05T14:27:00;991;;;26.1;26.7
12722;BME280;6425;50.316;8.114;2023-06-05T14:30:00;991;;;26.2;26.6
12722;BME280;6425;50.316;8.114;2023-06-05T14:34:39;991;;;26.2;26.4
12722;BME280;6425;50.316;8.114;2023-06-05T14:36:00;991;;;26.4;25.5
12722;BME280;6425;50.316;8.114;2023-06-05T14:39:00;991;;;26.4;25.5
12722;BME280;6425;50.316;8.114;2023-06-05T14:42:00;991;;;25.9;26
12722;BME280;6425;50.316;8.114;2023-06-05T14:45:00;991;;;26.3;26.1
12722;BME280;6425;50.316;8.114;2023-06-05T14:48:00;991;;;26.2;26.6
12722;BME280;6425;50.316;8.114;2023-06-05T14:51:00;991;;;26.1;27.2
12722;BME280;6425;50.316;8.114;2023-06-05T14:54:00;991;;;25.9;27.4
12722;BME280;6425;50.316;8.114;2023-06-05T14:57:00;991;;;26;27.3
12722;BME280;6425;50.316;8.114;2023-06-05T15:00:00;991;;;25.6;27.9
12722;BME280;6425;50.316;8.114;2023-06-05T15:03:00;991;;;25.8;28
12722;BME280;6425;50.316;8.114;2023-06-05T15:06:00;991;;;25.8;27.5
12722;BME280;6425;50.316;8.114;2023-06-05T15:09:00;991;;;25.6;26.8
12722;BME280;6425;50.316;8.114;2023-06-05T15:12:00;991;;;26.1;26.4
12722;BME280;6425;50.316;8.114;2023-06-05T15:15:00;991;;;26.3;26.6
12722;BME280;6425;50.316;8.114;2023-06-05T15:18:00;991;;;26.1;27
12722;BME280;6425;50.316;8.114;2023-06-05T15:21:00;991;;;26.3;26.9
12722;BME280;6425;50.316;8.114;2023-06-05T15:24:00;991;;;25.5;27.6
12722;BME280;6425;50.316;8.114;2023-06-05T15:27:00;991;;;25.6;27.7
12722;BME280;6425;50.316;8.114;2023-06-05T15:30:00;991;;;25.4;27.3
12722;BME280;6425;50.316;8.114;2023-06-05T15:33:00;991;;;26.2;26.1
12722;BME280;6425;50.316;8.114;2023-06-05T15:36:00;991;;;26.5;25.4
12722;BME280;6425;50.316;8.114;2023-06-05T15:39:00;991;;;25.9;27.4
12722;BME280;6425;50.316;8.114;2023-06-05T15:42:00;991;;;25.6;25.6
12722;BME280;6425;50.316;8.114;2023-06-05T15:45:08;991;;;25.7;26.5
12722;BME280;6425;50.316;8.114;2023-06-05T15:48:00;991;;;26;26.8
12722;BME280;6425;50.316;8.114;2023-06-05T15:51:00;991;;;26.6;25.6
12722;BME280;6425;50.316;8.114;2023-06-05T15:54:00;991;;;27.1;25.4
12722;BME280;6425;50.316;8.114;2023-06-05T15:57:00;991;;;25.9;26.1
12722;BME280;6425;50.316;8.114;2023-06-05T16:00:00;991;;;25.8;26.3
12722;BME280;6425;50.316;8.114;2023-06-05T16:03:00;990;;;25.3;27.1
12722;BME280;6425;50.316;8.114;2023-06-05T16:06:00;990;;;25.4;27.2
12722;BME280;6425;50.316;8.114;2023-06-05T16:09:00;990;;;25.7;27.2
12722;BME280;6425;50.316;8.114;2023-06-05T16:12:00;990;;;26;26
12722;BME280;6425;50.316;8.114;2023-06-05T16:15:00;990;;;26;25.4
12722;BME280;6425;50.316;8.114;2023-06-05T16:18:00;990;;;25.9;27.2
12722;BME280;6425;50.316;8.114;2023-06-05T16:21:00;990;;;26.4;26.7
12722;BME280;6425;50.316;8.114;2023-06-05T16:24:00;990;;;26;26.6
12722;BME280;6425;50.316;8.114;2023-06-05T16:27:00;990;;;25;27.1
12722;BME280;6425;50.316;8.114;2023-06-05T16:30:00;990;;;25;27.4
12722;BME280;6425;50.316;8.114;2023-06-05T16:33:00;990;;;25.4;28.3
12722;BME280;6425;50.316;8.114;2023-06-05T16:36:00;990;;;25.8;26.9
12722;BME280;6425;50.316;8.114;2023-06-05T16:39:00;990;;;25.5;27.1
12722;BME280;6425;50.316;8.114;2023-06-05T16:42:00;990;;;25;28
12722;BME280;6425;50.316;8.114;2023-06-05T16:45:00;990;;;25.3;28.1
12722;BME280;6425;50.316;8.114;2023-06-05T16:48:00;990;;;25.7;28.4
12722;BME280;6425;50.316;8.114;2023-06-05T16:51:00;990;;;25.7;28.9
12722;BME280;6425;50.316;8.114;2023-06-05T16:54:00;990;;;25.3;27.3
12722;BME280;6425;50.316;8.114;2023-06-05T16:57:00;990;;;25.3;26.9
12722;BME280;6425;50.316;8.114;2023-06-05T17:00:00;990;;;25.6;26.6
12722;BME280;6425;50.316;8.114;2023-06-05T17:03:00;990;;;25.9;26.2
12722;BME280;6425;50.316;8.114;2023-06-05T17:06:00;990;;;25.7;27.6
12722;BME280;6425;50.316;8.114;2023-06-05T17:09:00;990;;;25.9;27.1
12722;BME280;6425;50.316;8.114;2023-06-05T17:12:00;990;;;25.4;26.4
12722;BME280;6425;50.316;8.114;2023-06-05T17:15:00;990;;;25;26.8
12722;BME280;6425;50.316;8.114;2023-06-05T17:18:00;990;;;25.1;27.5
12722;BME280;6425;50.316;8.114;2023-06-05T17:21:00;990;;;25.5;27
12722;BME280;6425;50.316;8.114;2023-06-05T17:24:00;990;;;25.9;27.4
12722;BME280;6425;50.316;8.114;2023-06-05T17:27:00;990;;;25.6;28.2
12722;BME280;6425;50.316;8.114;2023-06-05T17:30:00;990;;;25.7;28.2
12722;BME280;6425;50.316;8.114;2023-06-05T17:33:00;990;;;25.9;27.9
12722;BME280;6425;50.316;8.114;2023-06-05T17:36:00;990;;;25.7;27.8
12722;BME280;6425;50.316;8.114;2023-06-05T17:39:00;990;;;25;28.3
12722;BME280;6425;50.316;8.114;2023-06-05T17:42:00;990;;;25;28
12722;BME280;6425;50.316;8.114;2023-06-05T17:45:00;990;;;25;28.5
12722;BME280;6425;50.316;8.114;2023-06-05T17:48:00;990;;;24.7;28.9
12722;BME280;6425;50.316;8.114;2023-06-05T17:51:00;990;;;24.6;29.7
12722;BME280;6425;50.316;8.114;2023-06-05T17:54:00;990;;;24.5;29.4
12722;BME280;6425;50.316;8.114;2023-06-05T17:57:00;990;;;24.4;29.7
12722;BME280;6425;50.316;8.114;2023-06-05T18:00:00;990;;;24.1;29.7